Troyes, Troyes – Barberey Airport (LFQB)

NameTroyes – Barberey Airport
CityTroyes
CountryFrance
ICAOLFQB
IATAQYR
Altitude36 m
CoordinatesGoogle Map
Live Air TrafficLiveATC.net
METARLFQB 191600Z AUTO 04013KT 010V070 CAVOK 20/02 Q1025
2019-09-19 16:00:00 Wind: North-Northeast (40°) 6.69 m/s - Visibility: > 10000 m - Weather: CAVOK - Temperature: 20 °C - Dew point: 2 °C - Humidity: 30.4% - Pressure: 1025 hPa
Statistics

The table below shows the detailed information of all flights to/from Troyes, Troyes – Barberey Airport (LFQB).